Terminal Aerodrome Forecast
Issued by NWS

Home | Current Version | Previous Version | Text Only | Print | Product List | Glossary On
Versions: 1 2 3 4 5 6 7 8 9 10 11 12 13 14 15 16 17 18 19 20
025
FTUS46 KMFR 111121
TAFLMT
TAF
KLMT 111121Z 1112/1212 17005KT P6SM SCT035
     FM111800 24009KT P6SM SCT035 BKN050
     FM120300 22005KT P6SM BKN035=

USA.gov is the U.S. government's official web portal to all federal, state and local government web resources and services.